Terminal Aerodrome Forecast
Issued by NWS Charleston, WV

Home | Current Version | Previous Version | Text Only | Print | Product List | Glossary On
Versions: 1 2 3 4 5 6 7 8 9 10 11 12 13 14 15 16 17 18 19
291
FTUS41 KRLX 241505 AAA
TAFPKB
TAF AMD
KPKB 241505Z 2415/2512 09007KT 4SM -SHRA BR OVC050
     FM241900 08007KT P6SM -SHRA OVC060
     FM250800 36004KT P6SM OVC025
     FM251000 36004KT P6SM OVC015=

USA.gov is the U.S. government's official web portal to all federal, state and local government web resources and services.